Swannanoa, North Carolina
Current Conditions -  °F | °C
As of 2:54 AM on Thursday 18 Dec 2014 (Local Time) from KAVL Reporting Station
Clear Clear  
Wind Chill: 26°   Ceiling: Unl
Heat Index: 35°   Visibility: 10mi
Dew Point: 30°   Wind: 14mph
Humidity: 82%   Direction: 350°N
Pressure: 30.13"   Gusts: NA
Location:  35.6°N, 82.4°W
Report Text: KAVL 180754Z AUTO 35012KT 10SM CLR 02/M01 A3013 RMK AO2 SLP204 T00171011
Loading
Personal Weather Stations






























Interactive Weather Map New forecast layout! Learn more

10-Day Weather Forecast

Advertisements
Track Severe Weather on mobile